createdAt,value
2018-05-31T06:10:31.425Z,38.19
2018-05-31T06:13:51.379Z,36.86
2018-05-31T06:16:18.948Z,38.59
2018-05-31T06:18:46.520Z,37.88
2018-05-31T06:21:14.092Z,37.27
2018-05-31T06:23:41.695Z,34.56
2018-05-31T06:26:09.372Z,34.00
2018-05-31T06:28:36.945Z,34.20
2018-05-31T06:33:38.386Z,33.86
2018-05-31T06:36:06.004Z,34.99
2018-05-31T06:38:33.604Z,34.92
2018-05-31T06:41:01.185Z,34.36
2018-05-31T06:43:28.759Z,33.78
2018-05-31T06:45:56.397Z,34.07
2018-05-31T06:48:24.129Z,32.89
2018-05-31T06:50:51.732Z,32.30
2018-05-31T06:53:19.525Z,33.31
2018-05-31T06:55:47.116Z,33.66
2018-05-31T06:58:14.689Z,32.63
2018-05-31T07:00:42.249Z,33.12
2018-05-31T07:03:10.198Z,32.57
2018-05-31T07:05:37.845Z,32.43
2018-05-31T07:08:05.453Z,31.24
2018-05-31T07:10:33.005Z,31.24
2018-05-31T07:13:00.601Z,32.00
2018-05-31T07:15:28.174Z,32.76
2018-05-31T07:17:55.876Z,32.29
2018-05-31T07:20:23.475Z,32.20
2018-05-31T07:22:51.094Z,32.08
2018-05-31T07:25:18.697Z,30.82
2018-05-31T07:27:46.301Z,31.58
2018-05-31T07:30:13.853Z,31.75
2018-05-31T07:32:41.457Z,32.20
2018-05-31T07:35:09.097Z,32.14
2018-05-31T07:37:36.680Z,32.30
2018-05-31T07:40:04.244Z,31.60
2018-05-31T07:42:31.821Z,31.68
2018-05-31T07:44:59.406Z,32.17
2018-05-31T07:47:26.956Z,32.24
2018-05-31T07:49:54.591Z,31.66
2018-05-31T07:52:22.194Z,31.90
2018-05-31T07:54:49.972Z,32.81
2018-05-31T07:57:17.673Z,32.86
2018-05-31T07:59:45.549Z,32.27
2018-05-31T08:02:13.145Z,30.66
2018-05-31T08:04:40.934Z,31.49
2018-05-31T08:07:08.729Z,30.73
2018-05-31T08:09:36.355Z,32.22
2018-05-31T08:12:03.938Z,30.01
2018-05-31T08:14:31.656Z,31.44
2018-05-31T08:16:59.215Z,32.58
2018-05-31T08:19:26.835Z,33.01
2018-05-31T08:21:54.427Z,32.50
2018-05-31T08:24:22.068Z,32.32
2018-05-31T08:26:49.716Z,31.24
2018-05-31T08:29:17.292Z,31.34
2018-05-31T08:31:44.907Z,31.84
2018-05-31T08:34:12.492Z,32.20
2018-05-31T08:36:40.172Z,32.31
2018-05-31T08:39:07.789Z,32.70
2018-05-31T08:41:35.445Z,32.00
2018-05-31T08:44:03.043Z,31.79
2018-05-31T08:46:30.628Z,32.77
2018-05-31T08:48:58.202Z,31.97
2018-05-31T08:51:25.852Z,32.34
2018-05-31T08:53:53.541Z,31.97
2018-05-31T08:56:21.129Z,31.93
2018-05-31T08:58:48.678Z,32.63
2018-05-31T09:01:16.307Z,32.29
2018-05-31T09:03:43.908Z,32.55
2018-05-31T09:06:11.484Z,31.79
2018-05-31T09:08:39.173Z,31.78
2018-05-31T09:11:06.772Z,31.88
2018-05-31T09:13:34.435Z,32.44
2018-05-31T09:16:02.026Z,31.48
2018-05-31T09:18:29.614Z,31.71
2018-05-31T09:20:57.262Z,31.33
2018-05-31T09:23:24.807Z,31.09
2018-05-31T09:25:52.457Z,31.40
2018-05-31T09:28:20.068Z,30.72
2018-05-31T09:30:47.825Z,30.95
2018-05-31T09:33:15.459Z,31.22
2018-05-31T09:35:43.031Z,30.33
2018-05-31T09:38:10.616Z,30.92
2018-05-31T09:40:38.152Z,30.87
2018-05-31T09:43:08.262Z,31.78
2018-05-31T09:45:35.924Z,30.97
2018-05-31T09:48:03.654Z,30.37
2018-05-31T09:50:31.289Z,30.87
2018-05-31T09:52:58.873Z,30.99
2018-05-31T09:55:26.433Z,31.06
2018-05-31T09:57:54.042Z,31.78
2018-05-31T10:00:21.747Z,31.61
2018-05-31T10:02:49.342Z,31.24
2018-05-31T10:05:16.914Z,31.78
2018-05-31T10:07:44.543Z,31.29
2018-05-31T10:10:12.110Z,31.50
2018-05-31T10:12:39.848Z,31.30
2018-05-31T10:15:07.434Z,31.53
2018-05-31T10:17:35.020Z,31.10
2018-05-31T10:20:02.637Z,30.64
2018-05-31T10:22:30.226Z,30.87
2018-05-31T10:24:57.831Z,30.29
2018-05-31T10:27:25.487Z,30.18
2018-05-31T10:29:53.252Z,29.31
2018-05-31T10:32:21.086Z,28.77
2018-05-31T10:34:48.790Z,28.52
2018-05-31T10:37:16.414Z,27.92
2018-05-31T10:39:43.949Z,27.73
2018-05-31T10:42:11.583Z,28.06
2018-05-31T10:44:39.205Z,27.19
2018-05-31T10:47:06.786Z,27.50
2018-05-31T10:49:34.337Z,27.67
2018-05-31T10:52:01.992Z,27.18
2018-05-31T10:54:29.624Z,27.11
2018-05-31T10:56:57.241Z,27.26
2018-05-31T10:59:24.777Z,26.95
2018-05-31T11:01:52.386Z,26.16
2018-05-31T11:04:20.097Z,25.69
2018-05-31T11:06:47.676Z,25.52
2018-05-31T11:09:15.256Z,26.09
2018-05-31T11:11:42.869Z,25.07
2018-05-31T11:14:10.479Z,24.05
2018-05-31T11:16:38.058Z,24.40
2018-05-31T11:19:05.627Z,24.09
2018-05-31T11:21:33.314Z,24.19
2018-05-31T11:24:00.893Z,23.74
2018-05-31T11:26:28.440Z,23.90
2018-05-31T11:28:56.031Z,23.25
2018-05-31T11:31:23.638Z,23.63
2018-05-31T11:33:51.212Z,22.88
2018-05-31T11:36:19.101Z,22.39
2018-05-31T11:38:46.711Z,22.11
2018-05-31T11:41:14.356Z,22.08
2018-05-31T11:43:41.945Z,22.80
2018-05-31T11:46:09.532Z,23.68
2018-05-31T11:48:37.214Z,23.26
2018-05-31T11:51:04.776Z,23.03
2018-05-31T11:53:32.336Z,23.97
2018-05-31T11:56:00.051Z,23.93
2018-05-31T11:58:27.663Z,22.99
2018-05-31T12:00:55.244Z,21.80
2018-05-31T12:03:22.982Z,22.11
2018-05-31T12:05:50.560Z,21.34
2018-05-31T12:08:18.193Z,20.44
2018-05-31T12:10:45.813Z,19.19
2018-05-31T12:13:13.544Z,18.05
2018-05-31T12:15:41.302Z,17.89
2018-05-31T12:18:08.914Z,16.28
2018-05-31T12:20:36.508Z,15.60
2018-05-31T12:23:04.238Z,15.11
2018-05-31T12:25:31.863Z,14.57
2018-05-31T12:27:59.435Z,13.37
2018-05-31T12:30:27.004Z,13.23
2018-05-31T12:32:54.564Z,13.38
2018-05-31T12:35:22.282Z,12.84
2018-05-31T12:37:49.870Z,11.90
2018-05-31T12:40:17.514Z,12.51
2018-05-31T12:42:45.097Z,14.92
2018-05-31T12:45:12.705Z,14.95
2018-05-31T12:47:40.421Z,13.31
2018-05-31T12:50:07.992Z,13.51
2018-05-31T12:52:35.641Z,12.16
2018-05-31T12:55:03.211Z,12.95
2018-05-31T12:57:30.788Z,13.30
2018-05-31T12:59:58.377Z,12.77
2018-05-31T13:02:25.959Z,12.74
2018-05-31T13:04:53.544Z,12.74
2018-05-31T13:07:21.136Z,14.73
2018-05-31T13:09:48.716Z,14.53
2018-05-31T13:12:16.286Z,15.25
2018-05-31T13:14:44.181Z,14.45
2018-05-31T13:17:11.862Z,14.31
2018-05-31T13:19:39.433Z,14.49
2018-05-31T13:22:07.000Z,16.38
2018-05-31T13:24:34.748Z,15.67
2018-05-31T13:27:02.346Z,16.51
2018-05-31T13:29:29.923Z,17.95
2018-05-31T13:31:57.501Z,18.45
2018-05-31T13:34:25.069Z,19.76
2018-05-31T13:36:52.669Z,20.24
2018-05-31T13:39:20.263Z,20.53
2018-05-31T13:41:47.861Z,21.48
2018-05-31T13:44:15.557Z,21.96
2018-05-31T13:46:43.522Z,22.01
2018-05-31T13:49:11.291Z,22.12
2018-05-31T13:51:38.850Z,21.70
2018-05-31T13:54:06.513Z,21.81
2018-05-31T13:56:34.098Z,22.03
2018-05-31T13:59:01.656Z,22.36
2018-05-31T14:01:29.209Z,22.84
2018-05-31T14:03:56.801Z,23.49
2018-05-31T14:06:24.451Z,23.30
2018-05-31T14:08:52.397Z,23.46
2018-05-31T14:11:19.956Z,22.93
2018-05-31T14:13:47.827Z,21.60
2018-05-31T14:16:15.454Z,19.87
2018-05-31T14:18:43.172Z,19.63
2018-05-31T14:21:10.799Z,19.61
2018-05-31T14:23:38.694Z,18.88
2018-05-31T14:26:06.359Z,18.26
2018-05-31T14:28:33.951Z,18.18
2018-05-31T14:31:01.497Z,17.88
2018-05-31T14:33:29.078Z,19.18
2018-05-31T14:35:56.784Z,19.07
2018-05-31T14:38:24.410Z,20.39
2018-05-31T14:40:52.198Z,21.98
2018-05-31T14:43:19.944Z,22.58
2018-05-31T14:45:48.043Z,21.15
2018-05-31T14:48:15.619Z,20.44
2018-05-31T14:50:43.181Z,20.34
2018-05-31T14:53:10.768Z,21.72
2018-05-31T14:55:38.330Z,21.46
2018-05-31T14:58:06.073Z,21.29
2018-05-31T15:00:33.665Z,21.11
2018-05-31T15:03:01.240Z,21.69
2018-05-31T15:05:28.820Z,22.25
2018-05-31T15:07:56.422Z,21.42
2018-05-31T15:10:24.034Z,21.24
2018-05-31T15:12:51.622Z,20.37
2018-05-31T15:15:19.178Z,19.97
2018-05-31T15:17:46.791Z,20.51
2018-05-31T15:20:14.510Z,22.75
2018-05-31T15:22:42.043Z,24.96
2018-05-31T15:25:09.600Z,25.61
2018-05-31T15:27:37.204Z,25.75
2018-05-31T15:30:04.767Z,26.89
2018-05-31T15:32:33.127Z,26.88
2018-05-31T15:35:00.751Z,26.54
2018-05-31T15:37:28.353Z,26.92
2018-05-31T15:39:55.897Z,26.79
2018-05-31T15:42:23.614Z,27.57
2018-05-31T15:44:51.456Z,27.55
2018-05-31T15:47:19.037Z,27.84
2018-05-31T15:49:46.708Z,27.87
2018-05-31T15:52:14.425Z,27.93
2018-05-31T15:54:42.008Z,28.37
2018-05-31T15:57:09.687Z,28.52
2018-05-31T15:59:37.250Z,28.82
2018-05-31T16:02:04.912Z,28.67
2018-05-31T16:04:32.578Z,29.01
2018-05-31T16:07:00.145Z,29.36
2018-05-31T16:09:27.757Z,29.40
2018-05-31T16:11:55.400Z,29.46
2018-05-31T16:14:23.043Z,29.69
2018-05-31T16:16:50.740Z,29.96
2018-05-31T16:19:18.304Z,29.85
2018-05-31T16:21:45.990Z,29.89
2018-05-31T16:24:13.571Z,30.24
2018-05-31T16:26:41.148Z,29.85
2018-05-31T16:29:08.743Z,30.10
2018-05-31T16:31:36.330Z,30.45
2018-05-31T16:34:03.946Z,30.37
2018-05-31T16:36:31.497Z,30.77
2018-05-31T16:38:59.120Z,30.86
2018-05-31T16:41:26.682Z,30.59
2018-05-31T16:44:01.039Z,31.00
2018-05-31T16:46:28.791Z,31.17
2018-05-31T16:48:56.410Z,31.06
2018-05-31T16:51:23.985Z,31.28
2018-05-31T16:53:52.307Z,31.15
2018-05-31T16:56:19.887Z,31.29
2018-05-31T16:58:47.486Z,31.56
2018-05-31T17:01:15.073Z,31.61
2018-05-31T17:03:42.661Z,31.55
2018-05-31T17:06:10.224Z,31.59
2018-05-31T17:08:39.206Z,31.71
2018-05-31T17:11:06.775Z,32.00
2018-05-31T17:13:34.666Z,32.09
2018-05-31T17:16:02.487Z,31.96
2018-05-31T17:18:30.628Z,32.00
2018-05-31T17:20:58.216Z,32.40
2018-05-31T17:23:26.536Z,32.76
2018-05-31T17:25:54.591Z,32.89
2018-05-31T17:28:22.230Z,32.97
2018-05-31T17:30:49.809Z,32.43
2018-05-31T17:33:17.493Z,32.73
2018-05-31T17:35:45.091Z,33.19
2018-05-31T17:38:12.803Z,33.36
2018-05-31T17:40:40.444Z,33.34
2018-05-31T17:43:08.948Z,33.28
2018-05-31T17:45:36.559Z,34.08
2018-05-31T17:48:04.138Z,33.91
2018-05-31T17:50:31.854Z,34.18
2018-05-31T17:52:59.446Z,33.73
2018-05-31T17:55:27.030Z,34.22
2018-05-31T17:57:54.707Z,33.48
2018-05-31T18:00:22.255Z,33.94
2018-05-31T18:02:49.964Z,34.59
2018-05-31T18:05:17.814Z,34.53
2018-05-31T18:07:46.310Z,34.20
2018-05-31T18:10:14.095Z,34.29
2018-05-31T18:12:41.674Z,34.85
2018-05-31T18:15:09.498Z,34.37
2018-05-31T18:17:37.237Z,35.37
2018-05-31T18:20:04.823Z,35.55
2018-05-31T18:22:32.392Z,35.49
2018-05-31T18:24:59.980Z,36.02
2018-05-31T18:27:27.624Z,36.20
2018-05-31T18:29:55.209Z,35.44
2018-05-31T18:32:22.779Z,36.43
2018-05-31T18:34:50.790Z,36.60
2018-05-31T18:37:18.594Z,36.12
2018-05-31T18:39:46.171Z,36.87
2018-05-31T18:42:13.793Z,36.68
2018-05-31T18:44:41.456Z,36.80
2018-05-31T18:47:09.169Z,36.61
2018-05-31T18:49:36.759Z,36.32
2018-05-31T18:52:04.552Z,36.19
2018-05-31T18:54:32.126Z,36.34
2018-05-31T18:56:59.751Z,36.89
2018-05-31T18:59:27.387Z,37.19
2018-05-31T19:01:54.976Z,36.99
2018-05-31T19:04:22.664Z,37.55
2018-05-31T19:06:50.231Z,37.36
2018-05-31T19:09:24.269Z,37.75
2018-05-31T19:11:51.862Z,37.96
2018-05-31T19:14:19.409Z,38.44
2018-05-31T19:16:48.078Z,38.20
2018-05-31T19:19:21.266Z,38.63
2018-05-31T19:21:48.844Z,39.05
2018-05-31T19:24:21.988Z,39.00
2018-05-31T19:26:50.990Z,39.32
2018-05-31T19:29:19.906Z,39.22
2018-05-31T19:31:48.393Z,39.26
2018-05-31T19:34:16.028Z,39.06
2018-05-31T19:36:49.163Z,38.52
2018-05-31T19:39:17.669Z,38.74
2018-05-31T19:41:45.467Z,39.39
2018-05-31T19:47:09.054Z,39.03
2018-05-31T19:49:36.777Z,39.52
2018-05-31T19:52:10.093Z,39.48
2018-05-31T19:54:37.697Z,39.90
2018-05-31T19:57:05.324Z,39.51
2018-05-31T19:59:39.337Z,39.34
2018-05-31T20:02:13.087Z,39.15
2018-05-31T20:04:40.848Z,38.95
2018-05-31T20:07:08.417Z,38.75
2018-05-31T20:09:35.990Z,39.07
2018-05-31T20:12:15.022Z,38.86
2018-05-31T20:14:43.579Z,38.77
2018-05-31T20:17:11.867Z,38.58
2018-05-31T20:19:39.561Z,38.60
2018-05-31T20:22:07.173Z,38.46
2018-05-31T20:24:34.795Z,38.44
2018-05-31T20:27:02.619Z,38.69
2018-05-31T20:29:30.208Z,38.60
2018-05-31T20:31:57.937Z,38.44
2018-05-31T20:34:25.588Z,38.51
2018-05-31T20:36:53.202Z,38.59
2018-05-31T20:39:20.880Z,38.55
2018-05-31T20:41:48.480Z,38.78
2018-05-31T20:44:17.254Z,39.17
2018-05-31T20:46:45.496Z,39.03
2018-05-31T20:49:13.079Z,39.07
2018-05-31T20:51:40.676Z,38.94
2018-05-31T20:54:10.299Z,39.30
2018-05-31T20:56:38.761Z,39.62
2018-05-31T20:59:10.486Z,39.44
2018-05-31T21:01:38.206Z,39.87
2018-05-31T21:04:08.483Z,39.80
2018-05-31T21:06:36.671Z,40.05
2018-05-31T21:09:04.653Z,39.91
2018-05-31T21:11:32.686Z,39.88
2018-05-31T21:14:01.257Z,40.37
2018-05-31T21:16:32.333Z,40.12
2018-05-31T21:19:04.292Z,40.20
2018-05-31T21:21:32.085Z,40.89
2018-05-31T21:24:00.612Z,41.14
2018-05-31T21:26:28.270Z,40.79
2018-05-31T21:28:55.966Z,41.34
2018-05-31T21:31:24.424Z,41.59
2018-05-31T21:33:52.409Z,41.29
2018-05-31T21:36:20.398Z,41.41
2018-05-31T21:38:48.094Z,41.51
2018-05-31T21:41:15.811Z,41.71
2018-05-31T21:43:43.390Z,41.52
2018-05-31T21:46:10.945Z,41.62
2018-05-31T21:48:38.543Z,41.95
2018-05-31T21:51:06.197Z,42.38
2018-05-31T21:53:33.752Z,42.38
2018-05-31T21:56:01.405Z,42.69
2018-05-31T21:58:29.025Z,43.06
2018-05-31T22:00:56.604Z,43.20
2018-05-31T22:03:24.153Z,43.47
2018-05-31T22:05:51.708Z,42.83
2018-05-31T22:08:19.279Z,43.32
2018-05-31T22:10:46.991Z,43.30
2018-05-31T22:13:14.666Z,43.65
2018-05-31T22:15:42.253Z,43.05
2018-05-31T22:18:09.810Z,43.64
2018-05-31T22:20:37.442Z,43.71
2018-05-31T22:23:05.063Z,43.35
2018-05-31T22:25:32.853Z,43.64
2018-05-31T22:28:00.564Z,43.42
2018-05-31T22:30:28.198Z,43.74
2018-05-31T22:32:55.836Z,43.60
2018-05-31T22:35:23.394Z,44.12
2018-05-31T22:37:50.933Z,43.99
2018-05-31T22:40:18.517Z,43.53
2018-05-31T22:42:46.142Z,43.60
2018-05-31T22:45:13.885Z,43.63
2018-05-31T22:47:41.428Z,43.58
2018-05-31T22:50:09.003Z,43.65
2018-05-31T22:52:36.616Z,43.46
2018-05-31T22:55:04.316Z,43.92
2018-05-31T22:57:31.900Z,44.13
2018-05-31T22:59:59.491Z,43.66
2018-05-31T23:02:27.087Z,44.17
2018-05-31T23:04:54.823Z,43.76
2018-05-31T23:07:22.637Z,44.29
2018-05-31T23:09:50.197Z,44.03
2018-05-31T23:12:17.804Z,44.36
2018-05-31T23:14:45.390Z,44.56
2018-05-31T23:17:13.089Z,44.86
2018-05-31T23:19:40.797Z,44.96
2018-05-31T23:22:08.381Z,44.97
2018-05-31T23:24:36.060Z,45.12
2018-05-31T23:27:03.741Z,45.25
2018-05-31T23:29:31.326Z,45.07
2018-05-31T23:31:58.906Z,45.54
2018-05-31T23:34:26.504Z,45.88
2018-05-31T23:36:54.082Z,45.73
2018-05-31T23:39:21.800Z,45.73
2018-05-31T23:41:49.396Z,45.73
2018-05-31T23:44:16.988Z,45.46
2018-05-31T23:46:44.577Z,45.50
2018-05-31T23:49:12.297Z,45.21
2018-05-31T23:51:40.035Z,45.87
2018-05-31T23:54:07.691Z,45.74
2018-05-31T23:56:35.406Z,46.01
2018-05-31T23:59:03.015Z,45.73
